Briefing drone pour Dijon (LFSD)

Rechercher une autre localisation

Conditions de vol :


Nous sommes le : Mercredi 07 décembre 2022
Il est 21:05 UTC (22:05 LT)

Lever de soleil : 06:46 UTC (07:46 LT)
Coucher de soleil : 16:15 UTC (17:15 LT)

Météo

L'essentiel des conditions de vol

VIGILANCE MÉTÉO FRANCE - Côte-dOr (21)
Pas de vigilances particulieres
METAR de LFSD
LFSD 072100Z AUTO 32007KT 9999 BKN020 01/M00 Q1015

Date d'émission: 07/12/2022
Heure d'émission: 21:00 UTC
Vent: 320° pour 7 KT (13 km/h)
Visibilité horizontale: > 10 km
Plafond :
- Nuages morcelés à 2000ft (610m)
Température: 1 °C
Point de rosée: 0 °C
Humidité: 93%
Pression (QNH): 1015 hPa
TAF de LFSD
LFSD 010600Z 0100/0124 CNL

Conditions prévues :

Heure d'émission : Bulletin éffectué le 01 à 00:00 UTC
Prévision : Valide du 01 a 00:00 UTC au 01 a 23:59 UTC
Nuages : à 0ft (0 m)
WEBCAM POUR DIJON

Réglementation

Voler en sécurité

CARTES AERONAUTIQUE 1/500.000
CARTE AZBA (Reseau basse altitude)
CARTES VAC (LFSD)
SUP AIP




Chargement des AIP...
NOTAM (DIJON + Terrain à proximité / FIR )




Chargement des NOTAMS...
CONTACT PREFECTURE 21
Côte-dOr (21) : pref-drone@cote-dor.gouv.fr


Avertissement : Les données mises à disposition sont indicatives. Oxygène Drone ne pourra être tenu responsable de dégâts causés aux biens et aux personnes.